メインページ
METAR-TAF:

METAR-TAF

空港 :

美保飛行場, 日本

緯度: 35-29N, 経度: 133-15E, 海抜: 6m

現時点の気象観測

当レポートは1時間2分前の11:00(UTC)に作成
東/北東の風 18kt
気温 15°C
湿度 59%
気圧 1020 hPa
視程10km以上
高度2000ftの雲はほとんどない
高度3000ftの雲は散在している
高度15000ftの千切れ雲あり

METAR: RJOH 201100Z 07018KT 9999 FEW020 SCT030 BKN150 15/07 Q1020

時間: 21:02 (12:02 UTC)

予報

当レポートは56分前の11:06(UTC)に作成
予報は20日の 12時(UTC)から 21日の 18時(UTC)まで有効
東/北東の風 18kt
視程10km以上
高度2000ftの雲はほとんどない
高度3000ftの雲は散在している
20日の 16時(UTC)から 20日の 18時(UTC)まで徐々に
の風 6kt
21日の 03時(UTC)から 21日の 06時(UTC)まで徐々に
東/北東の風 18kt
21日の 12時(UTC)から 21日の 15時(UTC)まで徐々に
の風 5kt

TAF: RJOH 201106Z 2012/2118 06018KT 9999 FEW020 SCT030 BECMG 2016/2018 08006KT BECMG 2103/2106 06018KT BECMG 2112/2115 18005KT

4,000以上の空港の気象観測と天気予報(METAR報とTAF報)

利用可能な観測所は地図上に黄色い丸と赤い丸で示す。

丸の上にカーソルを重ねると観測所名を参照できる。

次にクリックすると気象観測と天気予報を参照できる。

マップの切り替え:黒色「×」印の緑ボタンをクリックして拡大、「-」印の緑ボタンをクリックして縮小、緑色の三角印をクリックして隣りの地図に切り替え


METAR-TAF: